sensor_id;sensor_type;location;lat;lon;timestamp;pressure;altitude;pressure_sealevel;temperature;humidity
4858;BME280;58975;51.978;8.472;2022-11-20T00:01:20;99987.94;;;-5.38;100.00
4858;BME280;58975;51.978;8.472;2022-11-20T00:06:18;99968.06;;;-5.39;100.00
4858;BME280;58975;51.978;8.472;2022-11-20T00:11:20;99968.84;;;-5.35;100.00
4858;BME280;58975;51.978;8.472;2022-11-20T00:16:20;99963.13;;;-5.49;100.00
4858;BME280;58975;51.978;8.472;2022-11-20T00:21:19;99955.44;;;-5.54;100.00
4858;BME280;58975;51.978;8.472;2022-11-20T00:26:18;99956.59;;;-5.67;100.00
4858;BME280;58975;51.978;8.472;2022-11-20T00:31:16;99950.47;;;-5.64;100.00
4858;BME280;58975;51.978;8.472;2022-11-20T00:36:18;99949.63;;;-5.65;100.00
4858;BME280;58975;51.978;8.472;2022-11-20T00:41:15;99945.25;;;-5.63;100.00
4858;BME280;58975;51.978;8.472;2022-11-20T00:46:17;99948.72;;;-5.64;100.00
4858;BME280;58975;51.978;8.472;2022-11-20T00:51:16;99951.44;;;-5.68;100.00
4858;BME280;58975;51.978;8.472;2022-11-20T00:56:16;99957.13;;;-5.90;100.00
4858;BME280;58975;51.978;8.472;2022-11-20T01:01:18;99957.69;;;-5.77;100.00
4858;BME280;58975;51.978;8.472;2022-11-20T01:06:17;99955.81;;;-5.70;100.00
4858;BME280;58975;51.978;8.472;2022-11-20T01:11:20;99947.25;;;-5.76;100.00
4858;BME280;58975;51.978;8.472;2022-11-20T01:16:22;99948.88;;;-5.70;100.00
4858;BME280;58975;51.978;8.472;2022-11-20T01:21:24;99946.97;;;-5.62;100.00
4858;BME280;58975;51.978;8.472;2022-11-20T01:26:23;99954.19;;;-5.76;100.00
4858;BME280;58975;51.978;8.472;2022-11-20T01:36:23;99953.19;;;-5.69;100.00
4858;BME280;58975;51.978;8.472;2022-11-20T01:41:20;99950.44;;;-5.63;100.00
4858;BME280;58975;51.978;8.472;2022-11-20T01:46:38;99952.91;;;-5.57;100.00
4858;BME280;58975;51.978;8.472;2022-11-20T01:51:44;99933.94;;;-5.60;100.00
4858;BME280;58975;51.978;8.472;2022-11-20T01:56:44;99936.78;;;-5.69;100.00
4858;BME280;58975;51.978;8.472;2022-11-20T02:01:42;99939.56;;;-5.80;100.00
4858;BME280;58975;51.978;8.472;2022-11-20T02:06:42;99931.19;;;-5.90;100.00
4858;BME280;58975;51.978;8.472;2022-11-20T02:11:38;99927.75;;;-5.92;100.00
4858;BME280;58975;51.978;8.472;2022-11-20T02:16:37;99931.22;;;-5.91;100.00
4858;BME280;58975;51.978;8.472;2022-11-20T02:21:54;99935.00;;;-6.06;100.00
4858;BME280;58975;51.978;8.472;2022-11-20T02:27:10;99923.69;;;-6.03;100.00
4858;BME280;58975;51.978;8.472;2022-11-20T02:37:27;99909.38;;;-6.19;100.00
4858;BME280;58975;51.978;8.472;2022-11-20T02:42:26;99909.56;;;-6.29;100.00
4858;BME280;58975;51.978;8.472;2022-11-20T02:47:22;99917.00;;;-6.13;100.00
4858;BME280;58975;51.978;8.472;2022-11-20T02:52:19;99906.16;;;-6.32;100.00
4858;BME280;58975;51.978;8.472;2022-11-20T02:57:15;99893.38;;;-6.40;100.00
4858;BME280;58975;51.978;8.472;2022-11-20T03:02:12;99878.63;;;-6.36;100.00
4858;BME280;58975;51.978;8.472;2022-11-20T03:07:09;99887.28;;;-6.39;100.00
4858;BME280;58975;51.978;8.472;2022-11-20T03:12:06;99881.59;;;-6.56;100.00
4858;BME280;58975;51.978;8.472;2022-11-20T03:17:02;99892.63;;;-6.91;100.00
4858;BME280;58975;51.978;8.472;2022-11-20T03:21:59;99891.72;;;-6.88;100.00
4858;BME280;58975;51.978;8.472;2022-11-20T03:26:56;99892.25;;;-6.71;100.00
4858;BME280;58975;51.978;8.472;2022-11-20T03:31:52;99890.31;;;-6.60;100.00
4858;BME280;58975;51.978;8.472;2022-11-20T03:36:49;99890.56;;;-6.72;100.00
4858;BME280;58975;51.978;8.472;2022-11-20T03:41:45;99884.59;;;-6.77;100.00
4858;BME280;58975;51.978;8.472;2022-11-20T03:46:42;99879.50;;;-6.82;100.00
4858;BME280;58975;51.978;8.472;2022-11-20T03:51:38;99877.19;;;-6.95;100.00
4858;BME280;58975;51.978;8.472;2022-11-20T03:56:37;99887.47;;;-6.92;100.00
4858;BME280;58975;51.978;8.472;2022-11-20T04:01:36;99877.97;;;-6.90;100.00
4858;BME280;58975;51.978;8.472;2022-11-20T04:06:36;99874.53;;;-6.92;100.00
4858;BME280;58975;51.978;8.472;2022-11-20T04:11:35;99878.78;;;-6.88;100.00
4858;BME280;58975;51.978;8.472;2022-11-20T04:16:34;99878.09;;;-6.98;100.00
4858;BME280;58975;51.978;8.472;2022-11-20T04:21:32;99887.47;;;-6.91;100.00
4858;BME280;58975;51.978;8.472;2022-11-20T04:26:29;99880.06;;;-7.12;100.00
4858;BME280;58975;51.978;8.472;2022-11-20T04:31:29;99872.69;;;-7.35;100.00
4858;BME280;58975;51.978;8.472;2022-11-20T04:36:27;99875.28;;;-7.33;100.00
4858;BME280;58975;51.978;8.472;2022-11-20T04:41:26;99871.63;;;-7.23;100.00
4858;BME280;58975;51.978;8.472;2022-11-20T04:46:23;99868.97;;;-7.19;100.00
4858;BME280;58975;51.978;8.472;2022-11-20T04:51:19;99877.56;;;-7.17;100.00
4858;BME280;58975;51.978;8.472;2022-11-20T04:56:16;99880.13;;;-7.17;100.00
4858;BME280;58975;51.978;8.472;2022-11-20T05:01:18;99870.72;;;-7.21;100.00
4858;BME280;58975;51.978;8.472;2022-11-20T05:06:18;99882.13;;;-7.31;100.00
4858;BME280;58975;51.978;8.472;2022-11-20T05:11:17;99885.66;;;-7.36;100.00
4858;BME280;58975;51.978;8.472;2022-11-20T05:16:17;99883.56;;;-7.67;100.00
4858;BME280;58975;51.978;8.472;2022-11-20T05:21:14;99882.63;;;-7.61;100.00
4858;BME280;58975;51.978;8.472;2022-11-20T05:26:16;99875.53;;;-7.50;100.00
4858;BME280;58975;51.978;8.472;2022-11-20T05:31:16;99878.44;;;-7.71;100.00
4858;BME280;58975;51.978;8.472;2022-11-20T05:36:22;99867.78;;;-7.51;100.00
4858;BME280;58975;51.978;8.472;2022-11-20T05:41:19;99858.25;;;-7.48;100.00
4858;BME280;58975;51.978;8.472;2022-11-20T05:46:20;99856.66;;;-7.55;100.00
4858;BME280;58975;51.978;8.472;2022-11-20T05:51:24;99858.28;;;-7.49;100.00
4858;BME280;58975;51.978;8.472;2022-11-20T05:56:21;99856.38;;;-7.38;100.00
4858;BME280;58975;51.978;8.472;2022-11-20T06:01:21;99852.59;;;-7.18;100.00
4858;BME280;58975;51.978;8.472;2022-11-20T06:06:18;99859.50;;;-7.20;100.00
4858;BME280;58975;51.978;8.472;2022-11-20T06:11:16;99871.94;;;-6.92;100.00
4858;BME280;58975;51.978;8.472;2022-11-20T06:16:14;99868.91;;;-7.14;100.00
4858;BME280;58975;51.978;8.472;2022-11-20T06:21:14;99856.91;;;-7.20;100.00
4858;BME280;58975;51.978;8.472;2022-11-20T06:31:13;99869.38;;;-7.43;100.00
4858;BME280;58975;51.978;8.472;2022-11-20T06:36:11;99865.72;;;-7.30;100.00
4858;BME280;58975;51.978;8.472;2022-11-20T06:41:12;99865.84;;;-7.37;100.00
4858;BME280;58975;51.978;8.472;2022-11-20T06:46:10;99864.81;;;-7.29;100.00
4858;BME280;58975;51.978;8.472;2022-11-20T06:51:07;99858.91;;;-7.35;100.00
4858;BME280;58975;51.978;8.472;2022-11-20T06:56:05;99860.50;;;-7.27;100.00
4858;BME280;58975;51.978;8.472;2022-11-20T07:01:08;99864.41;;;-7.55;100.00
4858;BME280;58975;51.978;8.472;2022-11-20T07:06:05;99883.09;;;-7.38;100.00
4858;BME280;58975;51.978;8.472;2022-11-20T07:11:05;99874.16;;;-7.19;100.00
4858;BME280;58975;51.978;8.472;2022-11-20T07:16:04;99888.34;;;-6.93;100.00
4858;BME280;58975;51.978;8.472;2022-11-20T07:21:02;99894.00;;;-6.73;100.00
4858;BME280;58975;51.978;8.472;2022-11-20T07:26:03;99895.38;;;-6.54;100.00
4858;BME280;58975;51.978;8.472;2022-11-20T07:31:00;99899.09;;;-6.24;100.00
4858;BME280;58975;51.978;8.472;2022-11-20T07:35:58;99898.38;;;-5.91;100.00
4858;BME280;58975;51.978;8.472;2022-11-20T07:40:56;99895.84;;;-5.57;100.00
4858;BME280;58975;51.978;8.472;2022-11-20T07:45:57;99904.06;;;-5.40;100.00
4858;BME280;58975;51.978;8.472;2022-11-20T07:50:55;99895.69;;;-5.15;100.00
4858;BME280;58975;51.978;8.472;2022-11-20T07:55:52;99899.56;;;-4.98;100.00
4858;BME280;58975;51.978;8.472;2022-11-20T08:00:48;99893.03;;;-4.80;100.00
4858;BME280;58975;51.978;8.472;2022-11-20T08:05:45;99889.16;;;-4.65;100.00
4858;BME280;58975;51.978;8.472;2022-11-20T08:10:41;99886.09;;;-4.47;100.00
4858;BME280;58975;51.978;8.472;2022-11-20T08:15:39;99887.22;;;-4.26;100.00
4858;BME280;58975;51.978;8.472;2022-11-20T08:20:36;99884.72;;;-4.00;100.00
4858;BME280;58975;51.978;8.472;2022-11-20T08:25:37;99877.97;;;-3.78;100.00
4858;BME280;58975;51.978;8.472;2022-11-20T08:30:34;99875.28;;;-3.49;100.00
4858;BME280;58975;51.978;8.472;2022-11-20T08:35:37;99869.28;;;-3.24;100.00
4858;BME280;58975;51.978;8.472;2022-11-20T08:40:33;99863.84;;;-3.17;100.00
4858;BME280;58975;51.978;8.472;2022-11-20T08:45:30;99869.44;;;-3.03;100.00
4858;BME280;58975;51.978;8.472;2022-11-20T08:50:30;99864.56;;;-2.87;100.00
4858;BME280;58975;51.978;8.472;2022-11-20T08:55:30;99863.75;;;-2.89;100.00
4858;BME280;58975;51.978;8.472;2022-11-20T09:00:26;99872.28;;;-2.59;100.00
4858;BME280;58975;51.978;8.472;2022-11-20T09:05:23;99871.19;;;-2.30;100.00
4858;BME280;58975;51.978;8.472;2022-11-20T09:10:19;99889.47;;;-2.07;100.00
4858;BME280;58975;51.978;8.472;2022-11-20T09:15:20;99875.66;;;-1.87;100.00
4858;BME280;58975;51.978;8.472;2022-11-20T09:20:17;99885.25;;;-1.65;100.00
4858;BME280;58975;51.978;8.472;2022-11-20T09:25:14;99885.41;;;-1.48;100.00
4858;BME280;58975;51.978;8.472;2022-11-20T09:30:12;99884.88;;;-1.34;100.00
4858;BME280;58975;51.978;8.472;2022-11-20T09:35:09;99873.94;;;-1.22;100.00
4858;BME280;58975;51.978;8.472;2022-11-20T09:40:19;99883.25;;;-1.16;100.00
4858;BME280;58975;51.978;8.472;2022-11-20T09:50:56;99865.53;;;-0.47;100.00
4858;BME280;58975;51.978;8.472;2022-11-20T09:55:55;99870.47;;;-0.41;100.00
4858;BME280;58975;51.978;8.472;2022-11-20T10:00:53;99862.47;;;-0.38;100.00
4858;BME280;58975;51.978;8.472;2022-11-20T10:05:54;99848.00;;;-0.27;100.00
4858;BME280;58975;51.978;8.472;2022-11-20T10:11:10;99848.69;;;-0.42;100.00
4858;BME280;58975;51.978;8.472;2022-11-20T10:21:41;99847.28;;;-0.30;100.00
4858;BME280;58975;51.978;8.472;2022-11-20T10:27:09;99842.00;;;-0.10;100.00
4858;BME280;58975;51.978;8.472;2022-11-20T10:32:17;99836.34;;;-0.01;100.00
4858;BME280;58975;51.978;8.472;2022-11-20T10:37:18;99827.34;;;0.05;100.00
4858;BME280;58975;51.978;8.472;2022-11-20T10:42:28;99815.41;;;-0.01;100.00
4858;BME280;58975;51.978;8.472;2022-11-20T10:47:28;99807.41;;;0.02;100.00
4858;BME280;58975;51.978;8.472;2022-11-20T11:02:44;99801.25;;;0.03;100.00
4858;BME280;58975;51.978;8.472;2022-11-20T11:07:44;99798.16;;;-0.05;100.00
4858;BME280;58975;51.978;8.472;2022-11-20T11:12:44;99785.06;;;-0.05;100.00
4858;BME280;58975;51.978;8.472;2022-11-20T11:17:47;99778.69;;;0.00;100.00
4858;BME280;58975;51.978;8.472;2022-11-20T11:27:49;99764.53;;;0.05;100.00
4858;BME280;58975;51.978;8.472;2022-11-20T11:32:45;99756.28;;;0.31;100.00
4858;BME280;58975;51.978;8.472;2022-11-20T11:37:42;99762.16;;;0.53;100.00
4858;BME280;58975;51.978;8.472;2022-11-20T11:42:52;99753.75;;;0.64;100.00
4858;BME280;58975;51.978;8.472;2022-11-20T11:47:50;99751.75;;;0.69;100.00
4858;BME280;58975;51.978;8.472;2022-11-20T11:53:17;99747.97;;;0.74;100.00
4858;BME280;58975;51.978;8.472;2022-11-20T12:03:39;99750.38;;;0.62;100.00
4858;BME280;58975;51.978;8.472;2022-11-20T12:08:55;99754.81;;;0.77;100.00
4858;BME280;58975;51.978;8.472;2022-11-20T12:13:57;99738.78;;;0.83;100.00
4858;BME280;58975;51.978;8.472;2022-11-20T12:18:57;99745.78;;;1.00;100.00
4858;BME280;58975;51.978;8.472;2022-11-20T12:24:25;99733.50;;;1.17;100.00
4858;BME280;58975;51.978;8.472;2022-11-20T12:39:48;99718.97;;;1.43;100.00
4858;BME280;58975;51.978;8.472;2022-11-20T12:44:52;99710.25;;;1.42;100.00
4858;BME280;58975;51.978;8.472;2022-11-20T12:55:47;99705.09;;;1.25;100.00
4858;BME280;58975;51.978;8.472;2022-11-20T13:01:02;99699.69;;;1.28;100.00
4858;BME280;58975;51.978;8.472;2022-11-20T13:06:11;99696.88;;;1.31;100.00
4858;BME280;58975;51.978;8.472;2022-11-20T13:11:40;99695.97;;;1.32;100.00
4858;BME280;58975;51.978;8.472;2022-11-20T13:16:44;99686.66;;;1.42;100.00
4858;BME280;58975;51.978;8.472;2022-11-20T13:21:48;99682.59;;;1.68;100.00
4858;BME280;58975;51.978;8.472;2022-11-20T13:26:48;99680.13;;;1.81;100.00
4858;BME280;58975;51.978;8.472;2022-11-20T13:31:46;99668.59;;;1.99;100.00
4858;BME280;58975;51.978;8.472;2022-11-20T13:36:57;99666.66;;;1.87;100.00
4858;BME280;58975;51.978;8.472;2022-11-20T13:42:02;99659.91;;;1.83;100.00
4858;BME280;58975;51.978;8.472;2022-11-20T13:46:59;99642.28;;;1.54;100.00
4858;BME280;58975;51.978;8.472;2022-11-20T14:02:41;99611.50;;;1.41;100.00
4858;BME280;58975;51.978;8.472;2022-11-20T14:07:40;99610.66;;;1.41;100.00
4858;BME280;58975;51.978;8.472;2022-11-20T14:12:38;99601.59;;;1.47;100.00
4858;BME280;58975;51.978;8.472;2022-11-20T14:17:35;99593.72;;;1.47;100.00
4858;BME280;58975;51.978;8.472;2022-11-20T14:22:32;99575.63;;;1.42;100.00
4858;BME280;58975;51.978;8.472;2022-11-20T14:27:33;99572.75;;;1.31;100.00
4858;BME280;58975;51.978;8.472;2022-11-20T14:32:31;99576.97;;;1.18;100.00
4858;BME280;58975;51.978;8.472;2022-11-20T14:37:32;99567.09;;;1.07;100.00
4858;BME280;58975;51.978;8.472;2022-11-20T14:42:29;99563.84;;;1.02;100.00
4858;BME280;58975;51.978;8.472;2022-11-20T14:47:30;99557.88;;;1.00;100.00
4858;BME280;58975;51.978;8.472;2022-11-20T14:52:27;99552.81;;;0.97;100.00
4858;BME280;58975;51.978;8.472;2022-11-20T15:02:22;99538.06;;;0.79;100.00
4858;BME280;58975;51.978;8.472;2022-11-20T15:07:25;99522.69;;;0.73;100.00
4858;BME280;58975;51.978;8.472;2022-11-20T15:12:22;99505.16;;;0.58;100.00
4858;BME280;58975;51.978;8.472;2022-11-20T15:17:18;99503.97;;;0.47;100.00
4858;BME280;58975;51.978;8.472;2022-11-20T15:22:14;99505.91;;;0.44;100.00
4858;BME280;58975;51.978;8.472;2022-11-20T15:27:12;99505.03;;;0.43;100.00
4858;BME280;58975;51.978;8.472;2022-11-20T15:32:09;99494.13;;;0.35;100.00
4858;BME280;58975;51.978;8.472;2022-11-20T15:37:08;99486.44;;;0.32;100.00
4858;BME280;58975;51.978;8.472;2022-11-20T15:42:05;99479.38;;;0.34;100.00
4858;BME280;58975;51.978;8.472;2022-11-20T15:47:01;99484.44;;;0.37;100.00
4858;BME280;58975;51.978;8.472;2022-11-20T15:51:58;99482.75;;;0.52;100.00
4858;BME280;58975;51.978;8.472;2022-11-20T15:56:54;99488.59;;;0.57;100.00
4858;BME280;58975;51.978;8.472;2022-11-20T16:01:51;99477.44;;;0.54;100.00
4858;BME280;58975;51.978;8.472;2022-11-20T16:06:48;99474.81;;;0.54;100.00
4858;BME280;58975;51.978;8.472;2022-11-20T16:11:44;99462.47;;;0.56;100.00
4858;BME280;58975;51.978;8.472;2022-11-20T16:16:40;99442.47;;;0.55;100.00
4858;BME280;58975;51.978;8.472;2022-11-20T16:21:40;99436.28;;;0.56;100.00
4858;BME280;58975;51.978;8.472;2022-11-20T16:26:38;99430.91;;;0.59;100.00
4858;BME280;58975;51.978;8.472;2022-11-20T16:31:35;99423.28;;;0.54;100.00
4858;BME280;58975;51.978;8.472;2022-11-20T16:36:32;99422.44;;;0.54;100.00
4858;BME280;58975;51.978;8.472;2022-11-20T16:41:31;99412.63;;;0.57;100.00
4858;BME280;58975;51.978;8.472;2022-11-20T16:46:30;99399.78;;;0.53;100.00
4858;BME280;58975;51.978;8.472;2022-11-20T16:51:29;99402.31;;;0.54;100.00
4858;BME280;58975;51.978;8.472;2022-11-20T16:56:26;99392.69;;;0.55;100.00
4858;BME280;58975;51.978;8.472;2022-11-20T17:01:24;99382.38;;;0.52;100.00
4858;BME280;58975;51.978;8.472;2022-11-20T17:06:25;99362.38;;;0.51;100.00
4858;BME280;58975;51.978;8.472;2022-11-20T17:11:23;99366.09;;;0.46;100.00
4858;BME280;58975;51.978;8.472;2022-11-20T17:16:21;99365.91;;;0.50;100.00
4858;BME280;58975;51.978;8.472;2022-11-20T17:21:18;99356.94;;;0.54;100.00
4858;BME280;58975;51.978;8.472;2022-11-20T17:26:20;99351.88;;;0.51;100.00
4858;BME280;58975;51.978;8.472;2022-11-20T17:31:17;99351.09;;;0.48;100.00
4858;BME280;58975;51.978;8.472;2022-11-20T17:36:15;99336.91;;;0.53;100.00
4858;BME280;58975;51.978;8.472;2022-11-20T17:41:14;99333.38;;;0.54;100.00
4858;BME280;58975;51.978;8.472;2022-11-20T17:46:14;99324.59;;;0.55;100.00
4858;BME280;58975;51.978;8.472;2022-11-20T17:51:14;99319.25;;;0.56;100.00
4858;BME280;58975;51.978;8.472;2022-11-20T17:56:11;99326.84;;;0.61;100.00
4858;BME280;58975;51.978;8.472;2022-11-20T18:01:27;99310.38;;;0.59;100.00
4858;BME280;58975;51.978;8.472;2022-11-20T18:06:25;99318.13;;;0.60;100.00
4858;BME280;58975;51.978;8.472;2022-11-20T18:11:27;99306.66;;;0.63;100.00
4858;BME280;58975;51.978;8.472;2022-11-20T18:16:27;99301.97;;;0.68;100.00
4858;BME280;58975;51.978;8.472;2022-11-20T18:21:25;99306.28;;;0.69;100.00
4858;BME280;58975;51.978;8.472;2022-11-20T18:26:23;99305.38;;;0.70;100.00
4858;BME280;58975;51.978;8.472;2022-11-20T18:31:20;99313.94;;;0.87;100.00
4858;BME280;58975;51.978;8.472;2022-11-20T18:36:19;99312.63;;;0.94;100.00
4858;BME280;58975;51.978;8.472;2022-11-20T18:41:18;99308.25;;;0.65;100.00
4858;BME280;58975;51.978;8.472;2022-11-20T18:46:34;99296.53;;;0.41;100.00
4858;BME280;58975;51.978;8.472;2022-11-20T18:51:30;99285.16;;;0.26;100.00
4858;BME280;58975;51.978;8.472;2022-11-20T18:56:26;99264.13;;;0.12;100.00
4858;BME280;58975;51.978;8.472;2022-11-20T19:01:23;99249.69;;;0.05;100.00
4858;BME280;58975;51.978;8.472;2022-11-20T19:06:19;99242.22;;;-0.01;100.00
4858;BME280;58975;51.978;8.472;2022-11-20T19:11:16;99225.16;;;-0.08;100.00
4858;BME280;58975;51.978;8.472;2022-11-20T19:16:18;99214.69;;;-0.08;100.00
4858;BME280;58975;51.978;8.472;2022-11-20T19:21:20;99200.59;;;-0.06;100.00
4858;BME280;58975;51.978;8.472;2022-11-20T19:26:18;99186.59;;;-0.05;100.00
4858;BME280;58975;51.978;8.472;2022-11-20T19:31:18;99174.66;;;-0.10;100.00
4858;BME280;58975;51.978;8.472;2022-11-20T19:36:22;99163.88;;;-0.04;100.00
4858;BME280;58975;51.978;8.472;2022-11-20T19:41:22;99168.34;;;-0.06;100.00
4858;BME280;58975;51.978;8.472;2022-11-20T19:46:24;99159.19;;;0.01;100.00
4858;BME280;58975;51.978;8.472;2022-11-20T19:51:27;99156.59;;;0.01;100.00
4858;BME280;58975;51.978;8.472;2022-11-20T19:56:26;99140.81;;;0.03;100.00
4858;BME280;58975;51.978;8.472;2022-11-20T20:01:28;99132.06;;;-0.12;100.00
4858;BME280;58975;51.978;8.472;2022-11-20T20:06:26;99125.03;;;-0.12;100.00
4858;BME280;58975;51.978;8.472;2022-11-20T20:11:25;99114.00;;;-0.17;100.00
4858;BME280;58975;51.978;8.472;2022-11-20T20:16:23;99109.03;;;-0.21;100.00
4858;BME280;58975;51.978;8.472;2022-11-20T20:21:20;99107.94;;;-0.17;100.00
4858;BME280;58975;51.978;8.472;2022-11-20T20:26:16;99093.16;;;-0.18;100.00
4858;BME280;58975;51.978;8.472;2022-11-20T20:31:16;99087.00;;;-0.17;100.00
4858;BME280;58975;51.978;8.472;2022-11-20T20:36:15;99073.66;;;-0.13;100.00
4858;BME280;58975;51.978;8.472;2022-11-20T20:41:18;99064.47;;;-0.20;100.00
4858;BME280;58975;51.978;8.472;2022-11-20T20:46:15;99062.78;;;-0.21;100.00
4858;BME280;58975;51.978;8.472;2022-11-20T20:51:11;99056.91;;;-0.24;100.00
4858;BME280;58975;51.978;8.472;2022-11-20T20:56:08;99054.09;;;-0.21;100.00
4858;BME280;58975;51.978;8.472;2022-11-20T21:01:08;99039.91;;;-0.17;100.00
4858;BME280;58975;51.978;8.472;2022-11-20T21:06:06;99028.84;;;-0.22;100.00
4858;BME280;58975;51.978;8.472;2022-11-20T21:11:06;99030.53;;;-0.35;100.00
4858;BME280;58975;51.978;8.472;2022-11-20T21:16:03;99024.34;;;-0.34;100.00
4858;BME280;58975;51.978;8.472;2022-11-20T21:21:03;99016.66;;;-0.37;100.00
4858;BME280;58975;51.978;8.472;2022-11-20T21:26:19;99004.38;;;-0.35;100.00
4858;BME280;58975;51.978;8.472;2022-11-20T21:31:18;99001.25;;;-0.42;100.00
4858;BME280;58975;51.978;8.472;2022-11-20T21:36:19;99004.63;;;-0.40;100.00
4858;BME280;58975;51.978;8.472;2022-11-20T21:41:16;98996.00;;;-0.42;100.00
4858;BME280;58975;51.978;8.472;2022-11-20T21:46:14;98989.78;;;-0.39;100.00
4858;BME280;58975;51.978;8.472;2022-11-20T21:51:16;98980.44;;;-0.43;100.00
4858;BME280;58975;51.978;8.472;2022-11-20T21:56:14;98980.97;;;-0.38;100.00
4858;BME280;58975;51.978;8.472;2022-11-20T22:01:26;98988.94;;;-0.40;100.00
4858;BME280;58975;51.978;8.472;2022-11-20T22:06:25;98985.88;;;-0.32;100.00
4858;BME280;58975;51.978;8.472;2022-11-20T22:11:22;98987.91;;;-0.23;100.00
4858;BME280;58975;51.978;8.472;2022-11-20T22:16:19;98975.75;;;-0.38;100.00
4858;BME280;58975;51.978;8.472;2022-11-20T22:21:17;98978.88;;;-0.32;100.00
4858;BME280;58975;51.978;8.472;2022-11-20T22:26:16;98984.53;;;-0.39;100.00
4858;BME280;58975;51.978;8.472;2022-11-20T22:31:14;98984.44;;;-0.38;100.00
4858;BME280;58975;51.978;8.472;2022-11-20T22:36:13;98991.28;;;-0.35;100.00
4858;BME280;58975;51.978;8.472;2022-11-20T22:41:21;98997.63;;;-0.39;100.00
4858;BME280;58975;51.978;8.472;2022-11-20T22:46:20;99011.81;;;-0.43;100.00
4858;BME280;58975;51.978;8.472;2022-11-20T22:51:18;99019.06;;;-0.49;100.00
4858;BME280;58975;51.978;8.472;2022-11-20T22:56:15;99016.94;;;-0.42;100.00
4858;BME280;58975;51.978;8.472;2022-11-20T23:01:29;99021.16;;;-0.39;100.00
4858;BME280;58975;51.978;8.472;2022-11-20T23:06:26;99019.28;;;-0.37;100.00
4858;BME280;58975;51.978;8.472;2022-11-20T23:11:25;99024.34;;;-0.34;100.00
4858;BME280;58975;51.978;8.472;2022-11-20T23:16:22;99031.19;;;-0.32;100.00
4858;BME280;58975;51.978;8.472;2022-11-20T23:21:19;99040.28;;;-0.39;100.00
4858;BME280;58975;51.978;8.472;2022-11-20T23:26:17;99042.09;;;-0.39;100.00
4858;BME280;58975;51.978;8.472;2022-11-20T23:31:15;99042.09;;;-0.39;100.00
4858;BME280;58975;51.978;8.472;2022-11-20T23:36:12;99051.03;;;-0.43;100.00
4858;BME280;58975;51.978;8.472;2022-11-20T23:41:10;99045.97;;;-0.47;100.00
4858;BME280;58975;51.978;8.472;2022-11-20T23:46:07;99061.50;;;-0.43;100.00
4858;BME280;58975;51.978;8.472;2022-11-20T23:51:12;99063.09;;;-0.41;100.00
4858;BME280;58975;51.978;8.472;2022-11-20T23:56:10;99064.38;;;-0.48;100.00
